Time;durP1;ratioP1;P1;durP2;ratioP2;P2;SDS_P1;SDS_P2;PMS_P1;PMS_P2;Temp;Humidity;BMP_temperature;BMP_pressure;BME280_temperature;BME280_humidity;BME280_pressure;Samples;Min_cycle;Max_cycle;Signal;HPM_P1;HPM_P2
2024/02/29 00:01:54;;;;;;;37.93;22.23;;;;;;;6.42;100.00;101076.16;5035410;28;20427;-69
2024/02/29 00:04:20;;;;;;;36.40;22.00;;;;;;;5.94;100.00;101010.34;5037345;28;20206;-69
2024/02/29 00:06:45;;;;;;;40.67;23.37;;;;;;;6.23;100.00;101076.47;5027127;28;20921;-71
2024/02/29 00:09:11;;;;;;;37.43;22.63;;;;;;;6.25;100.00;101101.09;5026400;28;20264;-70
2024/02/29 00:11:37;;;;;;;36.80;22.90;;;;;;;6.09;100.00;101070.78;5026122;28;20551;-72
2024/02/29 00:14:02;;;;;;;39.47;22.87;;;;;;;6.38;100.00;101109.44;5023705;28;20212;-70
2024/02/29 00:16:28;;;;;;;42.80;23.37;;;;;;;6.49;100.00;101130.44;5028892;28;20231;-71
2024/02/29 00:18:53;;;;;;;39.07;23.70;;;;;;;6.41;100.00;101121.63;5031501;28;20241;-72
2024/02/29 00:21:18;;;;;;;39.10;23.30;;;;;;;5.92;100.00;101038.94;5045423;28;20249;-70
2024/02/29 00:23:44;;;;;;;36.83;22.33;;;;;;;6.45;100.00;101120.28;5028705;28;20180;-71
2024/02/29 00:26:14;;;;;;;41.97;24.43;;;;;;;6.32;100.00;101128.75;5021452;28;20185;-70
2024/02/29 00:28:39;;;;;;;41.63;24.10;;;;;;;6.36;100.00;101135.41;5038263;28;20253;-69
2024/02/29 00:31:05;;;;;;;38.40;22.23;;;;;;;5.97;100.00;101045.47;5023406;28;20465;-70
2024/02/29 00:33:30;;;;;;;40.30;25.20;;;;;;;6.29;100.00;101140.56;5025838;28;20560;-69
2024/02/29 00:35:55;;;;;;;36.97;22.30;;;;;;;5.84;100.00;101053.91;5028570;28;20230;-70
2024/02/29 00:38:21;;;;;;;40.30;23.80;;;;;;;6.41;100.00;101150.94;5030157;28;20184;-71
2024/02/29 00:40:47;;;;;;;37.17;23.30;;;;;;;6.35;100.00;101152.41;5039875;28;20231;-69
2024/02/29 00:43:12;;;;;;;37.13;23.33;;;;;;;6.21;100.00;101131.72;5036015;28;20196;-69
2024/02/29 00:45:38;;;;;;;39.27;25.20;;;;;;;6.36;100.00;101164.72;5033942;28;20442;-70
2024/02/29 00:48:04;;;;;;;40.83;23.40;;;;;;;5.59;100.00;101034.38;5036869;28;20187;-70
2024/02/29 00:50:29;;;;;;;36.87;22.57;;;;;;;6.28;100.00;101162.91;5032343;28;20643;-70
2024/02/29 00:52:55;;;;;;;39.83;24.30;;;;;;;5.96;100.00;101154.78;5030430;28;20185;-72
2024/02/29 00:55:20;;;;;;;39.07;23.33;;;;;;;5.86;100.00;101147.72;5031900;28;20607;-69
2024/02/29 00:57:49;;;;;;;42.80;24.07;;;;;;;5.46;100.00;101103.13;5029965;28;20192;-70
2024/02/29 01:00:15;;;;;;;43.63;24.20;;;;;;;5.71;100.00;101127.22;5031408;28;20211;-71
2024/02/29 01:02:40;;;;;;;44.63;22.80;;;;;;;6.02;100.00;101170.97;5029770;28;20446;-70
2024/02/29 01:05:07;;;;;;;42.40;23.80;;;;;;;5.94;100.00;101167.44;5031857;28;20199;-69
2024/02/29 01:07:32;;;;;;;41.30;23.60;;;;;;;5.64;100.00;101135.84;5032580;28;20573;-69
2024/02/29 01:09:58;;;;;;;40.40;22.70;;;;;;;4.50;100.00;100973.00;5024377;28;20476;-71
2024/02/29 01:12:24;;;;;;;38.80;22.03;;;;;;;5.66;100.00;101141.81;5030359;28;20191;-70
2024/02/29 01:14:50;;;;;;;41.87;24.03;;;;;;;5.76;100.00;101135.56;5023682;28;20182;-72
2024/02/29 01:17:15;;;;;;;40.57;23.47;;;;;;;5.97;100.00;101177.78;5030411;28;20442;-69
2024/02/29 01:19:40;;;;;;;38.10;21.60;;;;;;;5.71;100.00;101156.50;5028180;28;20187;-70
2024/02/29 01:22:06;;;;;;;41.40;23.13;;;;;;;5.81;100.00;101170.50;5032078;28;20179;-69
2024/02/29 01:24:32;;;;;;;40.60;22.73;;;;;;;5.73;100.00;101139.38;5026555;28;20183;-71
2024/02/29 01:26:59;;;;;;;38.67;23.60;;;;;;;5.66;100.00;101163.09;5027079;28;20669;-70
2024/02/29 01:29:24;;;;;;;37.90;21.87;;;;;;;5.79;100.00;101185.81;5027944;28;20200;-69
2024/02/29 01:31:50;;;;;;;44.07;22.70;;;;;;;5.82;100.00;101193.50;5029450;28;25513;-70
2024/02/29 01:34:15;;;;;;;42.47;23.70;;;;;;;5.63;100.00;101163.44;5017170;28;20192;-70
2024/02/29 01:36:44;;;;;;;36.23;21.40;;;;;;;5.71;100.00;101161.81;5033525;28;20184;-69
2024/02/29 01:39:09;;;;;;;40.23;22.57;;;;;;;5.72;100.00;101174.13;5031706;28;20609;-70
2024/02/29 01:41:35;;;;;;;41.93;22.37;;;;;;;5.13;100.00;101095.00;5034727;28;20446;-71
2024/02/29 01:44:00;;;;;;;41.77;21.80;;;;;;;5.48;100.00;101156.22;5034446;28;20185;-70
2024/02/29 01:46:27;;;;;;;44.90;24.97;;;;;;;5.45;100.00;101136.06;5031398;28;20184;-71
2024/02/29 01:48:53;;;;;;;38.80;21.27;;;;;;;5.73;100.00;101163.34;5036521;28;20219;-70
2024/02/29 01:51:20;;;;;;;40.20;22.03;;;;;;;5.38;100.00;101145.66;5032478;28;20486;-70
2024/02/29 01:53:45;;;;;;;42.57;23.13;;;;;;;5.16;100.00;101110.63;5035107;28;20447;-72
2024/02/29 01:56:12;;;;;;;36.90;21.53;;;;;;;5.08;100.00;101084.00;5030275;28;20446;-70
2024/02/29 01:58:39;;;;;;;41.20;22.27;;;;;;;4.87;100.00;101047.16;5033797;28;20267;-70
2024/02/29 02:01:04;;;;;;;38.90;22.27;;;;;;;5.34;100.00;101137.16;5029119;28;21158;-72
2024/02/29 02:03:30;;;;;;;44.10;22.17;;;;;;;5.62;100.00;101152.97;5033075;28;20433;-70
2024/02/29 02:05:55;;;;;;;38.60;23.00;;;;;;;5.40;100.00;101125.06;5027326;28;20184;-71
2024/02/29 02:08:23;;;;;;;36.20;21.47;;;;;;;4.98;100.00;101078.78;5037352;28;20258;-69
2024/02/29 02:10:49;;;;;;;40.33;22.13;;;;;;;5.52;100.00;101126.44;5028766;28;20207;-71
2024/02/29 02:13:15;;;;;;;43.97;23.30;;;;;;;5.58;100.00;101124.97;5032438;28;20739;-69
2024/02/29 02:15:41;;;;;;;37.87;21.27;;;;;;;5.38;100.00;101116.41;5028640;28;20222;-69
2024/02/29 02:18:06;;;;;;;42.23;21.90;;;;;;;5.41;100.00;101124.09;5030394;28;20202;-71
2024/02/29 02:20:32;;;;;;;36.30;22.03;;;;;;;5.63;100.00;101131.50;5029658;28;20454;-70
2024/02/29 02:22:57;;;;;;;43.00;21.73;;;;;;;5.07;100.00;101057.56;5024875;28;20215;-72
2024/02/29 02:25:23;;;;;;;42.23;20.63;;;;;;;5.25;100.00;101076.13;5033323;28;20229;-70
2024/02/29 02:27:48;;;;;;;31.57;19.23;;;;;;;5.61;100.00;101103.38;5028008;28;20267;-70
2024/02/29 02:30:14;;;;;;;33.30;21.03;;;;;;;5.31;100.00;101091.44;5026562;28;20643;-71
2024/02/29 02:32:40;;;;;;;37.17;19.70;;;;;;;5.46;100.00;101084.53;5034459;28;20268;-70
2024/02/29 02:35:06;;;;;;;37.00;20.00;;;;;;;5.22;100.00;101055.97;5026491;28;20180;-70
2024/02/29 02:37:33;;;;;;;32.97;18.93;;;;;;;5.11;100.00;101011.03;5032499;28;20438;-70
2024/02/29 02:39:58;;;;;;;31.97;18.60;;;;;;;5.38;100.00;101073.84;5029232;28;21145;-69
2024/02/29 02:42:24;;;;;;;32.37;19.30;;;;;;;5.50;100.00;101096.53;5028157;28;20430;-72
2024/02/29 02:44:50;;;;;;;33.13;19.27;;;;;;;5.61;100.00;101074.09;5028512;28;20263;-70
2024/02/29 02:47:15;;;;;;;31.33;18.33;;;;;;;5.78;100.00;101075.00;5032481;28;20569;-70
2024/02/29 02:49:41;;;;;;;32.77;20.53;;;;;;;5.73;100.00;101056.00;5030113;28;20929;-70
2024/02/29 02:52:08;;;;;;;35.47;18.90;;;;;;;5.74;100.00;101063.84;5032219;28;21094;-70
2024/02/29 02:54:33;;;;;;;36.03;19.17;;;;;;;5.57;100.00;101062.13;5026287;28;20437;-70
2024/02/29 02:56:59;;;;;;;30.93;17.77;;;;;;;5.35;100.00;100999.69;5032961;28;20434;-71
2024/02/29 02:59:25;;;;;;;30.90;17.73;;;;;;;5.71;100.00;101076.66;5037781;28;20267;-70
2024/02/29 03:01:50;;;;;;;34.23;18.40;;;;;;;5.78;100.00;101073.16;5027685;28;20299;-69
2024/02/29 03:04:16;;;;;;;34.27;18.83;;;;;;;5.56;100.00;101052.47;5031420;28;20659;-70
2024/02/29 03:06:42;;;;;;;28.73;17.43;;;;;;;5.61;100.00;101055.47;5038967;28;20283;-71
2024/02/29 03:09:07;;;;;;;34.77;18.57;;;;;;;5.40;100.00;101019.47;5033533;28;20982;-69
2024/02/29 03:11:34;;;;;;;30.33;16.50;;;;;;;5.09;100.00;100944.75;5026209;28;20256;-70
2024/02/29 03:13:59;;;;;;;30.03;17.30;;;;;;;5.56;100.00;101017.91;5027357;28;20176;-70
2024/02/29 03:16:26;;;;;;;30.27;17.53;;;;;;;5.48;100.00;100994.75;5028203;28;20933;-69
2024/02/29 03:18:51;;;;;;;24.53;16.07;;;;;;;5.70;100.00;101022.59;5026496;28;20194;-70
2024/02/29 03:21:17;;;;;;;28.67;17.30;;;;;;;5.63;100.00;101009.09;5030312;28;20458;-69
2024/02/29 03:23:43;;;;;;;30.07;16.77;;;;;;;5.64;100.00;100985.97;5027208;28;20192;-71
2024/02/29 03:26:08;;;;;;;28.13;16.60;;;;;;;5.77;100.00;101023.59;5025540;28;20566;-69
2024/02/29 03:28:34;;;;;;;26.83;16.00;;;;;;;4.89;100.00;100868.88;5029991;28;20846;-69
2024/02/29 03:31:00;;;;;;;28.27;16.37;;;;;;;5.87;100.00;101004.81;5022382;28;20226;-70
2024/02/29 03:33:26;;;;;;;25.50;16.37;;;;;;;5.60;100.00;100950.88;5031336;28;20188;-69
2024/02/29 03:35:52;;;;;;;28.27;15.17;;;;;;;5.41;100.00;100930.72;5033252;28;20452;-71
2024/02/29 03:38:18;;;;;;;24.10;14.43;;;;;;;5.86;100.00;100987.19;5032840;28;20464;-70
2024/02/29 03:40:44;;;;;;;26.90;14.27;;;;;;;5.91;100.00;100989.34;5029217;28;20215;-70
2024/02/29 03:43:10;;;;;;;29.73;16.13;;;;;;;5.85;100.00;100990.84;5026079;28;22603;-69
2024/02/29 03:45:35;;;;;;;24.27;14.53;;;;;;;5.96;100.00;100990.56;5027778;28;20945;-71
2024/02/29 03:48:01;;;;;;;24.40;15.60;;;;;;;6.00;100.00;100986.56;5020068;28;20423;-70
2024/02/29 03:50:27;;;;;;;32.10;16.40;;;;;;;5.86;100.00;100998.66;5030617;28;20211;-69
2024/02/29 03:52:53;;;;;;;29.63;15.53;;;;;;;5.97;100.00;101004.69;5033629;28;20673;-69
2024/02/29 03:55:18;;;;;;;27.53;14.43;;;;;;;5.80;100.00;100974.53;5035861;28;20434;-70
2024/02/29 03:57:44;;;;;;;26.53;15.90;;;;;;;5.94;100.00;101021.00;5030666;28;20181;-70
2024/02/29 04:00:11;;;;;;;27.20;16.37;;;;;;;5.78;100.00;100989.81;5036804;28;20208;-70
2024/02/29 04:02:37;;;;;;;30.33;16.10;;;;;;;5.61;100.00;100963.19;5032256;28;20211;-69
2024/02/29 04:05:05;;;;;;;26.57;15.17;;;;;;;5.87;100.00;100983.50;5031233;28;20981;-69
2024/02/29 04:07:31;;;;;;;25.20;15.30;;;;;;;5.95;100.00;100996.03;5036770;28;20504;-70
2024/02/29 04:09:56;;;;;;;28.17;16.30;;;;;;;5.14;100.00;100864.50;5039618;28;20459;-70
2024/02/29 04:12:22;;;;;;;24.33;14.80;;;;;;;5.98;100.00;100998.38;5042572;28;20263;-71
2024/02/29 04:14:47;;;;;;;26.63;16.10;;;;;;;6.01;100.00;100992.72;5034235;28;20181;-69
2024/02/29 04:17:13;;;;;;;22.60;14.10;;;;;;;5.82;100.00;100957.41;5033986;28;20184;-70
2024/02/29 04:19:38;;;;;;;23.93;14.13;;;;;;;5.77;100.00;100946.41;5038592;28;20183;-69
2024/02/29 04:22:06;;;;;;;26.30;14.57;;;;;;;5.24;100.00;100854.53;5035360;28;20211;-69
2024/02/29 04:24:32;;;;;;;22.20;14.13;;;;;;;5.99;100.00;100968.06;5035667;28;20427;-69
2024/02/29 04:26:57;;;;;;;22.73;13.97;;;;;;;5.94;100.00;100965.09;5037923;28;20184;-70
2024/02/29 04:29:22;;;;;;;26.30;14.57;;;;;;;5.42;100.00;100870.38;5035405;28;20207;-70
2024/02/29 04:31:48;;;;;;;25.10;13.93;;;;;;;3.32;100.00;100547.25;5054960;22;20251;-73
2024/02/29 04:34:14;;;;;;;21.53;13.17;;;;;;;3.10;100.00;100496.47;5025649;28;20200;-73
2024/02/29 04:36:42;;;;;;;25.87;13.93;;;;;;;5.29;100.00;100885.94;5026291;28;20557;-73
2024/02/29 04:39:10;;;;;;;28.13;14.10;;;;;;;4.26;100.00;100686.91;5011089;28;20443;-73
2024/02/29 04:41:36;;;;;;;23.43;12.87;;;;;;;4.26;100.00;100719.59;5006764;28;20967;-74
2024/02/29 04:44:01;;;;;;;21.40;12.10;;;;;;;5.08;100.00;100812.78;5000347;28;20441;-74
2024/02/29 04:46:29;;;;;;;27.33;14.10;;;;;;;4.21;100.00;100699.81;5004297;28;20247;-74
2024/02/29 04:48:54;;;;;;;22.10;12.97;;;;;;;4.42;100.00;100749.84;5003901;28;20264;-73
2024/02/29 04:51:23;;;;;;;21.63;13.07;;;;;;;3.75;100.00;100647.06;5003579;28;20443;-74
2024/02/29 04:53:50;;;;;;;20.03;11.97;;;;;;;3.14;100.00;100536.72;5005196;28;20564;-73
2024/02/29 04:56:16;;;;;;;18.47;11.53;;;;;;;4.08;100.00;100722.34;5011237;28;21017;-73
2024/02/29 04:58:44;;;;;;;21.87;12.97;;;;;;;3.99;100.00;100672.88;5003253;28;20467;-73
2024/02/29 05:01:09;;;;;;;24.23;12.67;;;;;;;3.22;100.00;100604.84;5010149;28;20263;-74
2024/02/29 05:03:37;;;;;;;21.30;12.33;;;;;;;3.14;100.00;100548.16;5005732;28;20518;-73
2024/02/29 05:06:03;;;;;;;20.98;13.43;;;;;;;3.52;100.00;100622.06;4997994;28;20492;-74
2024/02/29 05:08:31;;;;;;;19.00;12.10;;;;;;;4.90;100.00;100854.63;5001270;28;20197;-73
2024/02/29 05:10:59;;;;;;;18.77;11.33;;;;;;;4.24;100.00;100744.63;5002178;28;20428;-73
2024/02/29 05:13:24;;;;;;;17.70;11.33;;;;;;;4.62;100.00;100815.00;5002631;28;21007;-73
2024/02/29 05:15:50;;;;;;;17.93;10.50;;;;;;;4.64;100.00;100789.09;4995203;28;20444;-74
2024/02/29 05:18:15;;;;;;;19.80;10.77;;;;;;;3.31;100.00;100541.13;5001438;28;20578;-74
2024/02/29 05:20:41;;;;;;;19.23;11.03;;;;;;;3.27;100.00;100595.44;5000075;28;20264;-74
2024/02/29 05:23:07;;;;;;;20.07;11.20;;;;;;;4.57;100.00;100734.09;5003956;28;20215;-74
2024/02/29 05:25:36;;;;;;;17.90;10.37;;;;;;;5.31;100.00;100908.75;5002940;28;20192;-74
2024/02/29 05:28:01;;;;;;;19.87;10.30;;;;;;;3.53;100.00;100615.78;5005210;28;20511;-74
2024/02/29 05:30:36;;;;;;;16.70;10.70;;;;;;;5.37;100.00;100955.13;5002826;28;20882;-74
2024/02/29 05:33:04;;;;;;;17.67;10.83;;;;;;;3.40;100.00;100579.09;4996554;28;20488;-73
2024/02/29 05:35:30;;;;;;;17.00;10.70;;;;;;;6.05;100.00;100991.41;5003752;28;21154;-73
2024/02/29 05:37:56;;;;;;;16.13;9.47;;;;;;;5.48;100.00;100911.44;5009541;28;20546;-73
2024/02/29 05:40:21;;;;;;;16.13;9.30;;;;;;;5.07;100.00;100850.19;5008723;28;20559;-74
2024/02/29 05:42:46;;;;;;;15.50;9.80;;;;;;;5.88;100.00;100993.19;5008652;28;20196;-74
2024/02/29 05:45:12;;;;;;;16.80;9.37;;;;;;;5.36;100.00;100894.97;5007454;28;20235;-74
2024/02/29 05:47:38;;;;;;;16.30;10.00;;;;;;;5.91;100.00;100982.19;5004231;28;20235;-75
2024/02/29 05:50:04;;;;;;;16.50;9.30;;;;;;;5.96;100.00;100982.56;5013935;28;20263;-75
2024/02/29 05:52:29;;;;;;;15.97;9.40;;;;;;;5.97;100.00;100991.38;5006043;28;20719;-74
2024/02/29 05:54:56;;;;;;;15.87;9.53;;;;;;;5.82;100.00;100965.38;5002953;28;20539;-74
2024/02/29 05:57:24;;;;;;;18.20;9.57;;;;;;;5.68;100.00;100942.06;5010298;28;20585;-75
2024/02/29 05:59:50;;;;;;;21.37;10.20;;;;;;;5.16;100.00;100842.06;5006319;28;20486;-74
2024/02/29 06:02:15;;;;;;;16.43;9.37;;;;;;;5.97;100.00;100965.59;5010496;28;20467;-73
2024/02/29 06:04:44;;;;;;;20.73;10.10;;;;;;;5.74;100.00;100932.59;5013286;28;20658;-75
2024/02/29 06:07:09;;;;;;;16.60;10.03;;;;;;;4.99;100.00;100793.34;5011220;28;20185;-74
2024/02/29 06:09:35;;;;;;;15.67;9.07;;;;;;;4.72;100.00;100794.44;5010692;28;20533;-73
2024/02/29 06:12:01;;;;;;;15.33;9.40;;;;;;;5.87;100.00;100936.44;5011398;28;20206;-73
2024/02/29 06:14:27;;;;;;;17.63;9.03;;;;;;;6.01;100.00;100950.09;5009454;28;20658;-73
2024/02/29 06:16:52;;;;;;;17.00;9.07;;;;;;;5.62;100.00;100887.69;5006533;28;20460;-73
2024/02/29 06:19:18;;;;;;;16.60;8.70;;;;;;;5.15;100.00;100824.44;5010232;28;20220;-74
2024/02/29 06:21:43;;;;;;;14.23;8.70;;;;;;;5.09;100.00;100795.88;5006273;28;20265;-75
2024/02/29 06:24:09;;;;;;;14.80;9.00;;;;;;;5.02;100.00;100781.53;5008711;28;20204;-75
2024/02/29 06:26:36;;;;;;;15.77;8.80;;;;;;;5.86;100.00;100953.41;5006894;28;20608;-74
2024/02/29 06:29:04;;;;;;;13.07;8.03;;;;;;;5.48;100.00;100868.88;5006699;28;20213;-74
2024/02/29 06:31:30;;;;;;;15.20;8.60;;;;;;;6.04;100.00;100939.94;5007172;28;20443;-73
2024/02/29 06:33:55;;;;;;;14.77;7.93;;;;;;;5.26;100.00;100843.72;5010864;28;20444;-73
2024/02/29 06:36:20;;;;;;;17.47;8.43;;;;;;;5.70;100.00;100909.94;5020024;28;20181;-74
2024/02/29 06:38:46;;;;;;;15.73;8.97;;;;;;;5.12;100.00;100795.53;5020366;28;20729;-73
2024/02/29 06:41:11;;;;;;;19.00;9.20;;;;;;;5.09;100.00;100793.22;5008538;28;20185;-73
2024/02/29 06:43:37;;;;;;;17.33;9.60;;;;;;;5.60;100.00;100865.72;5011397;28;20750;-73
2024/02/29 06:46:05;;;;;;;18.13;9.30;;;;;;;5.19;100.00;100804.50;4999331;28;20545;-74
2024/02/29 06:48:31;;;;;;;14.20;8.77;;;;;;;4.71;100.00;100730.81;5007991;28;20203;-74
2024/02/29 06:50:56;;;;;;;16.37;9.60;;;;;;;4.96;100.00;100768.91;5006694;28;20435;-74
2024/02/29 06:53:22;;;;;;;18.33;9.03;;;;;;;5.77;100.00;100885.19;5006011;28;20432;-74
2024/02/29 06:55:47;;;;;;;18.67;8.90;;;;;;;5.12;100.00;100782.25;5008026;28;20189;-73
2024/02/29 06:58:13;;;;;;;15.33;9.27;;;;;;;5.40;100.00;100806.66;5008682;28;20262;-74
2024/02/29 07:00:39;;;;;;;13.80;8.30;;;;;;;5.33;100.00;100802.19;5011416;28;20521;-73
2024/02/29 07:03:06;;;;;;;13.87;8.30;;;;;;;5.78;100.00;100899.31;5008416;28;20196;-74
2024/02/29 07:05:32;;;;;;;16.53;8.53;;;;;;;5.35;100.00;100830.31;5007414;28;20443;-73
2024/02/29 07:07:57;;;;;;;21.00;8.40;;;;;;;5.04;100.00;100765.44;5006464;28;20833;-74
2024/02/29 07:10:23;;;;;;;15.43;7.93;;;;;;;6.05;100.00;100941.63;5007115;28;20208;-74
2024/02/29 07:12:49;;;;;;;14.27;8.03;;;;;;;5.18;100.00;100810.81;5006146;28;20181;-74
2024/02/29 07:15:14;;;;;;;11.63;7.53;;;;;;;5.08;100.00;100772.91;5006679;28;20176;-74
2024/02/29 07:17:41;;;;;;;12.10;7.10;;;;;;;5.11;100.00;100771.75;5009653;28;20862;-74
2024/02/29 07:20:07;;;;;;;11.00;7.20;;;;;;;6.14;100.00;100931.81;5005619;28;20169;-73
2024/02/29 07:22:37;;;;;;;12.13;7.47;;;;;;;5.29;100.00;100776.91;5022146;28;20519;-74
2024/02/29 07:25:07;;;;;;;12.67;7.57;;;;;;;5.28;100.00;100837.25;5003137;28;20932;-74
2024/02/29 07:27:36;;;;;;;15.53;7.50;;;;;;;5.90;100.00;100892.66;5004013;28;20456;-74
2024/02/29 07:30:03;;;;;;;14.73;7.53;;;;;;;5.76;100.00;100883.53;5004266;28;20560;-73
2024/02/29 07:32:28;;;;;;;12.40;6.83;;;;;;;5.79;100.00;100883.19;5002977;28;21141;-74
2024/02/29 07:34:53;;;;;;;12.07;7.00;;;;;;;5.49;100.00;100820.81;5004775;28;20490;-74
2024/02/29 07:37:21;;;;;;;15.10;7.10;;;;;;;5.47;100.00;100803.34;5008289;28;20176;-74
2024/02/29 07:39:47;;;;;;;13.87;7.90;;;;;;;5.29;100.00;100783.06;5000475;28;20705;-74
2024/02/29 07:42:13;;;;;;;12.83;8.10;;;;;;;5.26;100.00;100786.06;5008068;28;20431;-73
2024/02/29 07:44:38;;;;;;;14.00;7.73;;;;;;;5.56;100.00;100813.84;5004714;28;20642;-73
2024/02/29 07:47:04;;;;;;;15.77;7.70;;;;;;;5.34;100.00;100755.97;5007559;28;20194;-74
2024/02/29 07:49:31;;;;;;;12.00;7.53;;;;;;;6.16;100.00;100883.69;5005512;28;20209;-73
2024/02/29 07:51:57;;;;;;;13.00;8.17;;;;;;;5.97;100.00;100874.25;5006943;28;20227;-73
2024/02/29 07:54:23;;;;;;;15.10;8.60;;;;;;;5.85;100.00;100793.84;5008783;28;20436;-74
2024/02/29 07:56:48;;;;;;;15.77;8.10;;;;;;;5.56;100.00;100757.13;5006902;28;20271;-73
2024/02/29 07:59:13;;;;;;;11.17;7.13;;;;;;;5.00;100.00;100663.91;5001523;28;20292;-74
2024/02/29 08:01:39;;;;;;;13.27;7.93;;;;;;;5.68;100.00;100723.84;5007032;28;20183;-73
2024/02/29 08:04:04;;;;;;;13.13;7.93;;;;;;;5.12;100.00;100577.53;5006023;28;20247;-73
2024/02/29 08:06:30;;;;;;;16.80;8.40;;;;;;;5.16;100.00;100495.56;5006168;28;20599;-73
2024/02/29 08:08:55;;;;;;;17.80;9.00;;;;;;;5.82;100.00;100536.84;5004959;28;20209;-73
2024/02/29 08:11:21;;;;;;;14.97;9.40;;;;;;;4.97;100.00;100165.38;5008628;28;20231;-73
2024/02/29 08:13:47;;;;;;;12.30;8.00;;;;;;;5.92;100.00;100116.00;5001779;28;20246;-73
2024/02/29 08:16:12;;;;;;;16.13;9.27;;;;;;;5.10;100.00;99739.47;5005498;28;20440;-73
2024/02/29 08:18:38;;;;;;;13.10;8.00;;;;;;;5.92;100.00;99723.94;5005008;28;21637;-73
2024/02/29 08:21:03;;;;;;;16.37;9.30;;;;;;;5.46;100.00;99663.25;5007980;28;20212;-74
2024/02/29 08:23:29;;;;;;;16.97;9.30;;;;;;;5.77;100.00;99783.41;5007764;28;20569;-74
2024/02/29 08:25:55;;;;;;;20.87;9.73;;;;;;;5.42;100.00;99753.25;5005652;28;20196;-74
2024/02/29 08:28:20;;;;;;;15.60;9.13;;;;;;;5.19;100.00;99806.63;5005305;28;20463;-73
2024/02/29 08:30:46;;;;;;;14.50;8.73;;;;;;;5.76;100.00;99871.44;5003453;28;20201;-73
2024/02/29 08:33:11;;;;;;;15.07;9.20;;;;;;;5.08;100.00;99773.38;5004510;28;20193;-73
2024/02/29 08:35:37;;;;;;;15.17;9.17;;;;;;;5.83;100.00;99909.56;5006274;28;20185;-73
2024/02/29 08:38:02;;;;;;;15.60;9.20;;;;;;;4.94;100.00;99804.31;5003958;28;20217;-73
2024/02/29 08:40:28;;;;;;;14.70;9.40;;;;;;;5.25;100.00;99885.63;5020558;28;20177;-73
2024/02/29 08:42:53;;;;;;;14.83;8.67;;;;;;;5.87;100.00;99970.22;5004175;28;20192;-74
2024/02/29 08:45:19;;;;;;;15.43;8.70;;;;;;;5.25;100.00;99892.78;5005737;28;20182;-73
2024/02/29 08:47:44;;;;;;;13.60;8.53;;;;;;;5.32;100.00;99907.81;5006379;28;20211;-74
2024/02/29 08:50:10;;;;;;;15.10;8.97;;;;;;;5.48;100.00;99937.84;5004999;28;20193;-74
2024/02/29 08:52:35;;;;;;;15.40;9.37;;;;;;;5.78;100.00;99981.16;5023903;28;20562;-73
2024/02/29 08:55:01;;;;;;;18.53;9.00;;;;;;;6.07;100.00;100050.28;5020969;28;20204;-74
2024/02/29 08:57:26;;;;;;;14.93;9.70;;;;;;;6.15;100.00;100067.97;5005791;28;20264;-74
2024/02/29 08:59:51;;;;;;;16.30;9.20;;;;;;;5.62;100.00;99972.38;5006316;28;20180;-74
2024/02/29 09:02:18;;;;;;;14.30;8.20;;;;;;;5.46;100.00;100009.84;5009048;28;20239;-74
2024/02/29 09:04:44;;;;;;;14.60;8.80;;;;;;;5.39;100.00;99969.06;5006093;28;20181;-74
2024/02/29 09:07:10;;;;;;;16.37;9.07;;;;;;;5.13;100.00;99933.16;5008336;28;20514;-74
2024/02/29 09:09:36;;;;;;;13.77;8.70;;;;;;;5.86;100.00;99991.69;5008634;28;20471;-74
2024/02/29 09:12:06;;;;;;;14.40;9.00;;;;;;;6.29;100.00;100068.94;4999924;28;20819;-74
2024/02/29 09:14:31;;;;;;;11.73;7.23;;;;;;;5.24;100.00;99891.16;5007305;28;20975;-74
2024/02/29 09:16:57;;;;;;;17.13;8.57;;;;;;;5.96;100.00;100007.34;4999711;28;20472;-74
2024/02/29 09:19:22;;;;;;;13.83;7.93;;;;;;;5.69;100.00;99961.00;5004441;28;20219;-73
2024/02/29 09:21:48;;;;;;;17.00;8.40;;;;;;;5.79;100.00;99961.53;5001975;28;20182;-73
2024/02/29 09:24:13;;;;;;;18.47;8.60;;;;;;;5.92;100.00;99996.25;5006295;28;20177;-74
2024/02/29 09:26:38;;;;;;;14.07;8.40;;;;;;;6.13;100.00;100006.09;4991146;28;20702;-74
2024/02/29 09:29:04;;;;;;;14.10;8.77;;;;;;;5.68;100.00;99936.22;5004136;28;20216;-74
2024/02/29 09:31:29;;;;;;;13.67;8.30;;;;;;;6.15;100.00;99980.13;5003729;28;20192;-74
2024/02/29 09:33:55;;;;;;;13.60;8.60;;;;;;;5.57;100.00;99886.19;5004879;28;20554;-74
2024/02/29 09:36:21;;;;;;;15.60;8.77;;;;;;;5.45;100.00;99848.63;5001842;28;20563;-73
2024/02/29 09:38:46;;;;;;;14.43;8.90;;;;;;;6.04;100.00;99882.94;5006891;28;20299;-74
2024/02/29 09:41:12;;;;;;;14.60;8.13;;;;;;;6.17;100.00;99873.44;5007946;28;20844;-74
2024/02/29 09:43:40;;;;;;;12.97;7.93;;;;;;;6.40;100.00;99916.63;5020343;28;20234;-74
2024/02/29 09:46:07;;;;;;;14.40;9.00;;;;;;;6.31;100.00;99838.69;5005576;28;20883;-74
2024/02/29 09:48:33;;;;;;;14.27;8.23;;;;;;;6.08;100.00;99854.13;5007875;28;20486;-74
2024/02/29 09:51:02;;;;;;;15.97;8.50;;;;;;;5.73;100.00;99720.13;5004692;28;20464;-74
2024/02/29 09:53:28;;;;;;;15.13;9.57;;;;;;;6.23;100.00;99788.25;5007153;28;20353;-74
2024/02/29 09:55:57;;;;;;;14.13;7.87;;;;;;;6.01;100.00;99731.59;5019036;28;20439;-74
2024/02/29 09:58:25;;;;;;;20.03;8.97;;;;;;;5.51;100.00;99660.84;5002859;28;20481;-74
2024/02/29 10:00:50;;;;;;;15.53;9.10;;;;;;;6.11;100.00;99721.41;5002882;28;20435;-74
2024/02/29 10:03:17;;;;;;;15.07;8.40;;;;;;;5.73;100.00;99678.41;5007937;28;20510;-74
2024/02/29 10:05:45;;;;;;;13.80;8.23;;;;;;;5.92;100.00;99706.13;5008416;28;20197;-74
2024/02/29 10:08:10;;;;;;;14.23;8.27;;;;;;;5.82;100.00;99655.94;5005034;28;20827;-74
2024/02/29 10:10:37;;;;;;;16.67;8.73;;;;;;;6.71;100.00;99792.78;5004782;28;20476;-74
2024/02/29 10:13:03;;;;;;;16.57;7.80;;;;;;;5.94;100.00;99682.84;4996735;28;20200;-74
2024/02/29 10:15:29;;;;;;;15.30;9.20;;;;;;;6.70;100.00;99804.47;5004731;28;20448;-74
2024/02/29 10:17:58;;;;;;;11.70;7.90;;;;;;;6.49;100.00;99782.25;5008066;28;20212;-74
2024/02/29 10:20:24;;;;;;;15.20;8.77;;;;;;;6.72;100.00;99797.09;5006757;28;20428;-75
2024/02/29 10:22:51;;;;;;;14.53;8.50;;;;;;;6.65;100.00;99801.56;5005174;28;21058;-74
2024/02/29 10:25:17;;;;;;;18.23;9.40;;;;;;;6.57;100.00;99795.41;4999978;28;20450;-74
2024/02/29 10:27:43;;;;;;;15.80;9.43;;;;;;;6.09;100.00;99706.66;5002482;28;20448;-73
2024/02/29 10:30:10;;;;;;;17.70;10.33;;;;;;;6.67;100.00;99771.03;5004371;28;20467;-73
2024/02/29 10:32:42;;;;;;;16.20;9.10;;;;;;;5.73;100.00;99609.22;5047623;23;20804;-75
2024/02/29 10:35:30;;;;;;;14.17;8.93;;;;;;;4.64;100.00;99452.97;5003965;28;20454;-75
2024/02/29 10:37:58;;;;;;;17.37;10.33;;;;;;;6.02;100.00;99649.91;5012027;28;20435;-75
2024/02/29 10:40:28;;;;;;;15.93;10.03;;;;;;;4.40;100.00;99389.69;4993040;28;20459;-75
2024/02/29 10:42:56;;;;;;;18.70;10.47;;;;;;;5.72;100.00;99606.75;5001682;28;20435;-75
2024/02/29 10:45:27;;;;;;;20.47;10.33;;;;;;;5.25;100.00;99561.28;4998926;28;20483;-75
2024/02/29 10:48:40;;;;;;;12.60;8.70;;;;;;;4.25;100.00;99456.97;4999427;28;20572;-75
2024/02/29 10:51:15;;;;;;;16.87;10.27;;;;;;;4.75;100.00;99488.78;4979307;28;20867;-75
2024/02/29 10:54:16;;;;;;;18.05;10.68;;;;;;;6.64;100.00;99794.59;4997729;28;20443;-75
2024/02/29 10:56:46;;;;;;;18.70;11.13;;;;;;;4.92;100.00;99608.91;4995963;28;20200;-75
2024/02/29 10:59:15;;;;;;;21.67;10.37;;;;;;;5.16;100.00;99627.06;4993059;28;20615;-75
2024/02/29 11:01:44;;;;;;;16.10;9.23;;;;;;;4.51;100.00;99567.03;4999126;28;20443;-76
2024/02/29 11:04:09;;;;;;;17.47;10.83;;;;;;;5.18;100.00;99640.19;4996348;28;20446;-76
2024/02/29 11:06:38;;;;;;;18.47;9.70;;;;;;;4.85;100.00;99630.06;5001138;28;20442;-76
2024/02/29 11:09:08;;;;;;;14.70;9.17;;;;;;;5.54;100.00;99735.75;5004215;28;20243;-76
2024/02/29 11:11:39;;;;;;;19.20;10.30;;;;;;;5.90;100.00;99753.41;5009314;28;20972;-75